Time;durP1;ratioP1;P1;durP2;ratioP2;P2;SDS_P1;SDS_P2;PMS_P1;PMS_P2;Temp;Humidity;BMP_temperature;BMP_pressure;BME280_temperature;BME280_humidity;BME280_pressure;Samples;Min_cycle;Max_cycle;Signal;HPM_P1;HPM_P2
2023/09/28 00:01:44;;;;;;;8.45;6.43;;;;;;;15.53;96.79;101436.59;4851519;29;20041;-78
2023/09/28 00:04:10;;;;;;;7.15;6.45;;;;;;;15.55;96.96;101440.63;4878569;29;20520;-76
2023/09/28 00:06:36;;;;;;;6.90;5.82;;;;;;;15.54;96.69;101441.72;4855617;29;20055;-79
2023/09/28 00:09:03;;;;;;;7.38;6.55;;;;;;;15.52;96.78;101443.09;4853952;29;20032;-77
2023/09/28 00:11:29;;;;;;;7.05;5.88;;;;;;;15.51;96.77;101447.69;4865893;29;20512;-77
2023/09/28 00:13:57;;;;;;;7.45;6.07;;;;;;;15.49;96.54;101441.75;4863712;29;20033;-77
2023/09/28 00:16:24;;;;;;;7.65;6.13;;;;;;;15.49;96.41;101441.75;4867338;29;20051;-73
2023/09/28 00:18:50;;;;;;;7.55;6.30;;;;;;;15.45;96.37;101445.34;4863384;29;20054;-79
2023/09/28 00:21:16;;;;;;;7.78;6.32;;;;;;;15.44;96.92;101444.50;4867612;29;20037;-79
2023/09/28 00:23:42;;;;;;;9.05;6.82;;;;;;;15.44;97.19;101441.81;4828808;29;20085;-76
2023/09/28 00:26:08;;;;;;;7.57;6.40;;;;;;;15.42;97.41;101444.00;4866864;29;20061;-80
2023/09/28 00:28:36;;;;;;;9.60;6.97;;;;;;;15.41;97.32;101445.09;4862175;29;20033;-78
2023/09/28 00:31:05;;;;;;;8.95;7.05;;;;;;;15.41;97.74;101447.78;4870400;29;20055;-77
2023/09/28 00:33:31;;;;;;;10.27;6.78;;;;;;;15.41;96.95;101449.69;4865964;29;20538;-78
2023/09/28 00:35:57;;;;;;;;;;;;;;;15.37;97.50;101444.03;4854986;29;20045;-79
2023/09/28 00:38:22;;;;;;;7.00;5.97;;;;;;;15.34;97.45;101455.41;4859505;29;19919;-79
2023/09/28 00:40:50;;;;;;;6.50;5.85;;;;;;;15.32;97.06;101452.19;4869744;29;20092;-79
2023/09/28 00:43:29;;;;;;;6.47;5.78;;;;;;;15.31;96.89;101450.59;4856168;29;20066;-79
2023/09/28 00:45:55;;;;;;;6.85;6.10;;;;;;;15.24;97.42;101450.91;4869433;29;20060;-77
2023/09/28 00:48:21;;;;;;;;;;;;;;;15.23;97.30;101451.19;4864519;29;20628;-77
2023/09/28 00:50:47;;;;;;;8.45;6.40;;;;;;;15.17;96.93;101450.44;4850191;29;19944;-78
2023/09/28 00:53:14;;;;;;;8.45;6.90;;;;;;;15.17;97.33;101444.22;4854446;29;20044;-79
2023/09/28 00:55:42;;;;;;;7.93;6.63;;;;;;;15.15;97.43;101454.50;4835995;29;20043;-78
2023/09/28 00:58:09;;;;;;;9.93;7.68;;;;;;;15.11;97.78;101439.97;4839127;29;20041;-79
2023/09/28 01:00:36;;;;;;;11.38;8.13;;;;;;;15.09;98.55;101442.94;4834926;29;20041;-78
2023/09/28 01:03:08;;;;;;;9.30;7.25;;;;;;;15.10;98.55;101449.13;4866766;29;20040;-77
2023/09/28 01:05:38;;;;;;;8.60;7.63;;;;;;;15.10;98.56;101449.13;4850561;29;20042;-78
2023/09/28 01:08:14;;;;;;;8.07;6.75;;;;;;;15.11;98.49;101434.59;4868890;29;20477;-76
2023/09/28 01:10:40;;;;;;;7.85;6.82;;;;;;;15.10;98.63;101432.94;4851718;29;20522;-76
2023/09/28 01:13:11;;;;;;;9.27;8.02;;;;;;;15.09;98.70;101431.34;4857795;23;20052;-82
2023/09/28 01:15:42;;;;;;;9.07;7.82;;;;;;;15.06;99.04;101426.53;4856370;29;20033;-83
2023/09/28 01:18:09;;;;;;;8.68;7.68;;;;;;;15.06;99.02;101424.63;4841550;29;20041;-82
2023/09/28 01:20:37;;;;;;;8.77;7.32;;;;;;;15.03;98.89;101417.91;4866154;29;20384;-82
2023/09/28 01:23:06;;;;;;;9.73;7.50;;;;;;;15.02;98.81;101420.88;4869721;29;20045;-83
2023/09/28 01:25:33;;;;;;;11.07;7.90;;;;;;;15.02;99.16;101412.78;4862456;29;20037;-81
2023/09/28 01:27:59;;;;;;;9.48;8.02;;;;;;;15.02;99.63;101402.00;4886935;29;20036;-83
2023/09/28 01:30:27;;;;;;;9.55;8.55;;;;;;;15.02;99.47;101389.31;4859988;29;20097;-81
2023/09/28 01:32:52;;;;;;;8.57;7.53;;;;;;;15.03;99.78;101373.94;4870825;29;20073;-83
2023/09/28 01:35:18;;;;;;;10.70;8.75;;;;;;;15.05;99.38;101371.78;4879003;29;20089;-82
2023/09/28 01:38:05;;;;;;;9.02;7.90;;;;;;;15.03;99.84;101382.81;4855339;29;20034;-82
2023/09/28 01:40:30;;;;;;;11.95;8.63;;;;;;;15.03;99.54;101384.72;4885096;29;20589;-81
2023/09/28 01:42:56;;;;;;;10.20;8.13;;;;;;;15.02;99.77;101383.91;4871458;29;20045;-81
2023/09/28 01:45:22;;;;;;;10.75;8.45;;;;;;;15.02;99.59;101383.91;4850422;29;20104;-85
2023/09/28 01:47:48;;;;;;;12.38;8.57;;;;;;;15.02;99.72;101378.53;4858748;29;20041;-86
2023/09/28 01:50:13;;;;;;;9.25;8.18;;;;;;;15.03;99.58;101374.72;4850719;29;20449;-85
2023/09/28 01:52:39;;;;;;;9.48;8.23;;;;;;;15.00;99.40;101375.31;4862562;29;20053;-82
2023/09/28 01:55:05;;;;;;;12.70;9.02;;;;;;;14.97;99.73;101381.28;4880548;29;20108;-81
2023/09/28 01:57:33;;;;;;;11.07;8.70;;;;;;;14.97;99.20;101377.75;4855635;29;20037;-81
2023/09/28 02:00:00;;;;;;;11.00;8.40;;;;;;;14.94;99.27;101376.44;4851307;29;20038;-80
2023/09/28 02:02:26;;;;;;;9.05;7.90;;;;;;;14.92;99.73;101378.63;4847320;29;20041;-81
2023/09/28 02:04:52;;;;;;;10.43;7.57;;;;;;;14.89;99.62;101381.88;4873663;29;20037;-82
2023/09/28 02:07:18;;;;;;;9.30;8.13;;;;;;;14.88;99.51;101382.97;4866003;29;20041;-81
2023/09/28 02:09:44;;;;;;;10.70;8.82;;;;;;;14.85;100.00;101370.06;4861064;29;20037;-80
2023/09/28 02:12:10;;;;;;;11.77;9.88;;;;;;;14.85;99.66;101372.75;4855264;29;20037;-80
2023/09/28 02:14:36;;;;;;;11.32;8.77;;;;;;;14.84;99.92;101360.38;4860933;29;20058;-79
2023/09/28 02:17:02;;;;;;;;;;;;;;;14.82;99.62;101365.22;4870550;29;20034;-78
2023/09/28 02:19:28;;;;;;;12.02;8.73;;;;;;;14.79;99.51;101383.88;4853053;29;20353;-79
2023/09/28 02:21:53;;;;;;;8.45;7.47;;;;;;;14.75;99.94;101391.69;4854220;29;20060;-80
2023/09/28 02:24:19;;;;;;;10.35;8.07;;;;;;;14.72;100.00;101416.53;4886421;29;20033;-79
2023/09/28 02:26:47;;;;;;;10.25;8.43;;;;;;;14.70;100.00;101421.41;4863050;29;20036;-90
2023/09/28 02:29:13;;;;;;;9.60;8.60;;;;;;;14.67;100.00;101419.25;4868689;29;20038;-88
2023/09/28 02:31:42;;;;;;;8.32;6.82;;;;;;;14.62;100.00;101405.81;4860540;29;20047;-89
2023/09/28 02:34:08;;;;;;;8.95;7.28;;;;;;;14.60;100.00;101387.22;4848055;29;20065;-90
2023/09/28 02:36:35;;;;;;;8.82;7.78;;;;;;;14.60;100.00;101397.22;4879820;29;20120;-89
2023/09/28 02:39:05;;;;;;;8.80;7.78;;;;;;;14.58;100.00;101392.09;4849012;29;20594;-91
2023/09/28 02:41:31;;;;;;;12.52;9.38;;;;;;;14.57;100.00;101397.78;4867760;29;20151;-91
2023/09/28 02:43:58;;;;;;;9.65;7.90;;;;;;;14.55;100.00;101389.16;4871342;29;20092;-90
2023/09/28 02:46:26;;;;;;;11.32;8.85;;;;;;;14.52;100.00;101387.03;4864423;29;20037;-91
2023/09/28 02:48:52;;;;;;;11.90;8.93;;;;;;;14.51;100.00;101398.91;4878604;29;20060;-91
2023/09/28 02:51:17;;;;;;;;;;;;;;;14.52;100.00;101389.72;4869109;29;20038;-89
2023/09/28 02:53:43;;;;;;;13.00;8.75;;;;;;;14.50;100.00;101389.22;4860542;29;19927;-89
2023/09/28 02:56:12;;;;;;;9.38;8.13;;;;;;;14.47;100.00;101385.97;4841354;29;20034;-90
2023/09/28 02:58:38;;;;;;;13.25;9.02;;;;;;;14.48;100.00;101390.28;4854832;29;20045;-89
2023/09/28 03:01:04;;;;;;;9.35;7.95;;;;;;;14.46;100.00;101375.47;4861601;29;20038;-89
2023/09/28 03:03:30;;;;;;;11.05;8.27;;;;;;;14.46;100.00;101383.56;4848627;29;20052;-89
2023/09/28 03:05:56;;;;;;;10.80;8.40;;;;;;;14.43;100.00;101387.59;4873002;29;20048;-89
2023/09/28 03:08:23;;;;;;;12.10;10.80;;;;;;;14.43;100.00;101376.00;4857624;29;20716;-90
2023/09/28 03:10:50;;;;;;;12.15;9.27;;;;;;;14.41;100.00;101375.47;4872031;29;20034;-88
2023/09/28 03:13:16;;;;;;;10.45;8.85;;;;;;;14.41;100.00;101375.47;4856745;29;20073;-91
2023/09/28 03:15:45;;;;;;;10.48;9.10;;;;;;;14.40;100.00;101373.88;4860018;29;20053;-91
2023/09/28 03:18:12;;;;;;;11.65;9.27;;;;;;;14.39;100.00;101381.16;4852295;29;20043;-91
2023/09/28 03:20:42;;;;;;;12.20;9.13;;;;;;;14.39;100.00;101373.06;4882063;29;20068;-91
2023/09/28 03:23:08;;;;;;;10.93;8.88;;;;;;;14.39;100.00;101375.75;4869735;29;20092;-91
2023/09/28 03:25:34;;;;;;;;;;;;;;;14.39;100.00;101375.75;4853574;29;20041;-92
2023/09/28 03:28:00;;;;;;;9.77;8.60;;;;;;;14.37;100.00;101372.53;4862973;29;19975;-92
2023/09/28 03:30:26;;;;;;;;;;;;;;;14.39;100.00;101375.75;4881891;29;20049;-91
2023/09/28 03:32:53;;;;;;;10.70;7.80;;;;;;;14.37;100.00;101367.16;4886773;29;20301;-93
2023/09/28 03:35:19;;;;;;;10.15;9.05;;;;;;;14.35;100.00;101363.91;4873123;29;20100;-92
2023/09/28 03:37:47;;;;;;;10.07;8.75;;;;;;;14.35;100.00;101361.22;4866696;29;20045;-92
2023/09/28 03:40:14;;;;;;;10.30;8.57;;;;;;;14.33;100.00;101339.16;4881766;29;20040;-90
2023/09/28 03:42:42;;;;;;;13.18;10.55;;;;;;;14.33;100.00;101349.94;4857536;29;20148;-90
2023/09/28 03:45:09;;;;;;;11.50;9.60;;;;;;;14.32;100.00;101339.44;4845456;29;20559;-91
2023/09/28 03:47:40;;;;;;;13.38;10.60;;;;;;;14.32;100.00;101356.41;4874390;29;20045;-91
2023/09/28 03:50:09;;;;;;;12.02;9.82;;;;;;;14.33;100.00;101360.69;4852609;29;20048;-90
2023/09/28 03:52:37;;;;;;;12.20;9.15;;;;;;;14.35;100.00;101357.72;4884721;29;20088;-91
2023/09/28 03:55:23;;;;;;;11.07;9.00;;;;;;;14.35;100.00;101355.84;4878568;29;20091;-90
2023/09/28 03:57:50;;;;;;;13.63;9.75;;;;;;;14.31;100.00;101360.19;4865935;29;20060;-88
2023/09/28 04:00:18;;;;;;;12.13;9.32;;;;;;;14.30;100.00;101361.28;4862278;29;20044;-91
2023/09/28 04:02:49;;;;;;;12.55;10.63;;;;;;;14.31;100.00;101368.28;4847986;29;20120;-91
2023/09/28 04:05:15;;;;;;;13.27;10.38;;;;;;;14.32;100.00;101364.50;4838894;29;20496;-90
2023/09/28 04:07:41;;;;;;;;;;;;;;;14.33;100.00;101376.88;4875003;29;20120;-90
2023/09/28 04:10:08;;;;;;;11.98;9.05;;;;;;;14.33;100.00;101371.47;4870923;29;19915;-93
2023/09/28 04:12:35;;;;;;;13.63;10.55;;;;;;;14.36;100.00;101365.56;4878254;29;20502;-91
2023/09/28 04:15:00;;;;;;;12.10;9.77;;;;;;;14.35;100.00;101346.94;4848277;29;20037;-88
2023/09/28 04:17:26;;;;;;;;;;;;;;;14.35;100.00;101353.13;4872711;29;20045;-90
2023/09/28 04:19:52;;;;;;;11.13;8.45;;;;;;;14.31;100.00;101348.59;4866515;29;19915;-90
2023/09/28 04:22:18;;;;;;;;;;;;;;;14.30;100.00;101350.50;4860811;29;20029;-90
2023/09/28 04:24:44;;;;;;;9.77;8.25;;;;;;;14.29;100.00;101346.16;4862388;29;19967;-91
2023/09/28 04:27:11;;;;;;;13.88;9.88;;;;;;;14.28;100.00;101359.94;4863509;29;20037;-89
2023/09/28 04:29:37;;;;;;;13.07;9.68;;;;;;;14.27;100.00;101356.44;4885655;29;20070;-90
2023/09/28 04:32:04;;;;;;;12.57;9.45;;;;;;;14.30;100.00;101363.97;4870131;29;20040;-88
2023/09/28 04:34:30;;;;;;;12.43;9.52;;;;;;;14.31;100.00;101362.88;4864395;29;20041;-89
2023/09/28 04:36:58;;;;;;;;;;;;;;;14.32;100.00;101364.50;4879072;29;20029;-87
2023/09/28 04:39:24;;;;;;;12.43;9.52;;;;;;;14.31;100.00;101373.66;4872222;29;20014;-87
2023/09/28 04:41:54;;;;;;;10.77;8.57;;;;;;;14.29;100.00;101370.41;4857691;29;20033;-85
2023/09/28 04:44:20;;;;;;;11.93;9.48;;;;;;;14.27;100.00;101369.09;4893464;29;20498;-86
2023/09/28 04:46:50;;;;;;;13.65;8.93;;;;;;;14.30;100.00;101365.88;4855703;29;20029;-86
2023/09/28 04:49:19;;;;;;;13.18;10.20;;;;;;;14.31;100.00;101379.03;4871926;29;20034;-89
2023/09/28 04:51:45;;;;;;;13.98;9.88;;;;;;;14.34;100.00;101383.06;4865891;29;20033;-87
2023/09/28 04:54:11;;;;;;;14.80;10.65;;;;;;;14.34;100.00;101378.47;4869932;29;20037;-89
2023/09/28 04:56:38;;;;;;;11.57;10.35;;;;;;;14.34;100.00;101378.47;4872859;29;20033;-88
2023/09/28 04:59:03;;;;;;;;;;;;;;;14.36;100.00;101387.09;4869376;29;20040;-86
2023/09/28 05:01:29;;;;;;;12.75;9.30;;;;;;;14.33;100.00;101387.66;4885009;29;19916;-88
2023/09/28 05:03:55;;;;;;;11.85;8.88;;;;;;;14.34;100.00;101378.47;4879138;29;20057;-86
2023/09/28 05:06:21;;;;;;;11.15;9.70;;;;;;;14.35;100.00;101368.50;4877718;29;20087;-86
2023/09/28 05:08:47;;;;;;;12.77;9.20;;;;;;;14.36;100.00;101373.63;4873113;29;20033;-88
2023/09/28 05:11:13;;;;;;;;;;;;;;;14.35;100.00;101374.69;4874082;29;20028;-83
2023/09/28 05:13:39;;;;;;;13.63;9.82;;;;;;;14.35;100.00;101379.28;4861575;29;19916;-83
2023/09/28 05:16:04;;;;;;;;;;;;;;;14.37;100.00;101379.81;4871428;29;20029;-83
2023/09/28 05:18:31;;;;;;;14.68;10.60;;;;;;;14.34;100.00;101394.66;4857053;29;20358;-85
2023/09/28 05:20:56;;;;;;;;;;;;;;;14.36;100.00;101391.66;4855455;29;20131;-78
2023/09/28 05:23:22;;;;;;;11.40;9.23;;;;;;;14.33;100.00;101393.03;4879651;29;19924;-80
2023/09/28 05:25:48;;;;;;;11.70;9.15;;;;;;;14.35;100.00;101396.25;4833560;29;20037;-77
2023/09/28 05:28:14;;;;;;;;;;;;;;;14.35;100.00;101390.84;4869413;29;20045;-82
2023/09/28 05:30:40;;;;;;;12.85;9.43;;;;;;;14.34;100.00;101399.22;4875658;29;19983;-84
2023/09/28 05:33:06;;;;;;;;;;;;;;;14.37;100.00;101415.66;4852869;29;20494;-83
2023/09/28 05:35:31;;;;;;;11.77;9.10;;;;;;;14.34;100.00;101410.81;4876945;29;19915;-85
2023/09/28 05:37:57;;;;;;;;;;;;;;;14.36;100.00;101424.84;4877502;29;20415;-84
2023/09/28 05:40:23;;;;;;;12.23;9.60;;;;;;;14.36;100.00;101427.53;4868156;29;20105;-84
2023/09/28 05:42:48;;;;;;;;;;;;;;;14.36;100.00;101421.31;4870765;29;20538;-83
2023/09/28 05:45:14;;;;;;;11.52;9.30;;;;;;;14.34;100.00;101410.00;4861380;29;19923;-84
2023/09/28 05:47:39;;;;;;;11.98;9.38;;;;;;;14.32;100.00;101423.75;4858458;29;20128;-85
2023/09/28 05:50:05;;;;;;;;;;;;;;;14.34;100.00;101415.41;4857556;29;20057;-89
2023/09/28 05:52:31;;;;;;;10.55;9.13;;;;;;;14.31;100.00;101421.34;4874348;29;19943;-88
2023/09/28 05:54:57;;;;;;;;;;;;;;;14.32;100.00;101415.69;4879297;29;20502;-82
2023/09/28 05:57:23;;;;;;;12.30;9.85;;;;;;;14.32;100.00;101429.16;4873881;29;19916;-82
2023/09/28 05:59:48;;;;;;;;;;;;;;;14.33;100.00;101430.75;4870990;29;20044;-82
2023/09/28 06:02:14;;;;;;;12.00;9.52;;;;;;;14.31;100.00;101432.13;4872919;29;19920;-82
2023/09/28 06:04:41;;;;;;;14.23;9.85;;;;;;;14.31;100.00;101440.22;4879034;29;20068;-81
2023/09/28 06:07:09;;;;;;;12.43;9.20;;;;;;;14.32;100.00;101442.63;4863785;29;20092;-80
2023/09/28 06:09:36;;;;;;;14.43;10.40;;;;;;;14.34;100.00;101456.63;4858286;29;20136;-82
2023/09/28 06:12:02;;;;;;;13.95;10.40;;;;;;;14.35;100.00;101444.75;4877058;29;20433;-81
2023/09/28 06:14:28;;;;;;;;;;;;;;;14.39;100.00;101453.91;4862305;29;20044;-82
2023/09/28 06:16:53;;;;;;;11.40;8.90;;;;;;;14.41;100.00;101449.03;4865325;29;20346;-83
2023/09/28 06:19:19;;;;;;;;;;;;;;;14.47;100.00;101453.34;4882215;29;20040;-84
2023/09/28 06:21:45;;;;;;;13.38;9.60;;;;;;;14.51;100.00;101463.59;4863651;29;19924;-85
2023/09/28 06:24:11;;;;;;;;;;;;;;;14.60;100.00;101472.69;4866345;29;20068;-84
2023/09/28 06:26:37;;;;;;;14.40;10.90;;;;;;;14.64;100.00;101474.56;4864022;29;20342;-84
2023/09/28 06:29:03;;;;;;;13.95;10.73;;;;;;;14.70;100.00;101472.63;4880586;29;20049;-84
2023/09/28 06:31:29;;;;;;;;;;;;;;;14.77;100.00;101470.44;4878148;29;20040;-83
2023/09/28 06:33:55;;;;;;;12.45;9.07;;;;;;;14.80;100.00;101464.47;4848739;29;19916;-83
2023/09/28 06:36:21;;;;;;;;;;;;;;;14.87;100.00;101477.63;4868858;29;20034;-83
2023/09/28 06:38:47;;;;;;;12.43;9.50;;;;;;;14.89;100.00;101468.16;4876077;29;19916;-89
2023/09/28 06:41:13;;;;;;;12.50;10.30;;;;;;;14.93;100.00;101480.03;4855844;29;20056;-84
2023/09/28 06:43:39;;;;;;;;;;;;;;;14.98;100.00;101469.19;4848038;29;21232;-82
2023/09/28 06:46:05;;;;;;;12.57;10.05;;;;;;;15.00;100.00;101477.00;4869432;29;19945;-83
2023/09/28 06:48:30;;;;;;;13.32;9.88;;;;;;;15.02;100.00;101469.44;4863538;29;20147;-82
2023/09/28 06:50:57;;;;;;;15.32;10.40;;;;;;;15.05;100.00;101462.69;4875394;29;20029;-82
2023/09/28 06:53:24;;;;;;;13.25;8.95;;;;;;;15.07;100.00;101466.69;4852330;29;20490;-82
2023/09/28 06:55:50;;;;;;;10.95;9.35;;;;;;;15.11;100.00;101466.97;4860023;29;20193;-81
2023/09/28 06:58:15;;;;;;;;;;;;;;;15.15;100.00;101473.38;4849249;29;20128;-81
2023/09/28 07:00:42;;;;;;;9.55;7.82;;;;;;;15.15;100.00;101473.38;4863966;29;19919;-81
2023/09/28 07:03:08;;;;;;;12.27;8.95;;;;;;;15.21;100.00;101477.66;4868656;29;20574;-81
2023/09/28 07:05:34;;;;;;;11.07;9.25;;;;;;;15.25;100.00;101476.00;4840506;29;20400;-82
2023/09/28 07:08:01;;;;;;;13.20;8.95;;;;;;;15.33;100.00;101488.88;4844375;29;20192;-82
2023/09/28 07:10:26;;;;;;;13.00;10.18;;;;;;;15.37;100.00;101492.63;4857598;29;20076;-81
2023/09/28 07:12:52;;;;;;;;;;;;;;;15.44;100.00;101492.28;4881780;23;20077;-81
2023/09/28 07:15:18;;;;;;;9.85;7.72;;;;;;;15.47;100.00;101497.94;4849921;29;19953;-78
2023/09/28 07:17:44;;;;;;;;;;;;;;;15.55;100.00;101504.59;4841861;29;20029;-79
2023/09/28 07:20:14;;;;;;;9.77;7.75;;;;;;;15.58;100.00;101498.66;4833929;29;20042;-78
2023/09/28 07:22:40;;;;;;;8.95;7.85;;;;;;;15.65;100.00;101501.06;4840907;29;20096;-79
2023/09/28 07:25:09;;;;;;;10.52;8.38;;;;;;;15.69;100.00;101508.28;4837960;29;20041;-77
2023/09/28 07:27:34;;;;;;;13.05;8.68;;;;;;;15.76;100.00;101516.06;4839169;29;20037;-78
2023/09/28 07:30:05;;;;;;;;;;;;;;;15.82;100.00;101510.31;4831605;29;20420;-79
2023/09/28 07:32:30;;;;;;;;;;;;;;;15.87;100.00;101522.97;4830766;29;19916;-79
2023/09/28 07:35:00;;;;;;;10.52;7.57;;;;;;;15.92;100.00;101508.59;4836365;29;19927;-77
2023/09/28 07:37:27;;;;;;;10.18;7.03;;;;;;;16.00;100.00;101519.59;4840624;29;20191;-75
2023/09/28 07:39:53;;;;;;;10.15;7.45;;;;;;;16.04;100.00;101517.09;4855405;29;20025;-77
2023/09/28 07:42:19;;;;;;;10.07;7.25;;;;;;;16.12;100.00;101519.16;4838981;29;20030;-78
2023/09/28 07:44:47;;;;;;;8.13;7.03;;;;;;;16.19;100.00;101519.66;4835181;29;20044;-78
2023/09/28 07:47:14;;;;;;;9.27;7.60;;;;;;;16.27;100.00;101519.00;4848012;29;20090;-80
2023/09/28 07:49:40;;;;;;;9.30;7.57;;;;;;;16.38;100.00;101523.19;4835713;29;20050;-78
2023/09/28 07:52:09;;;;;;;10.75;6.75;;;;;;;16.44;99.61;101521.22;4843473;29;20407;-76
2023/09/28 07:54:36;;;;;;;10.30;7.40;;;;;;;16.56;99.62;101529.72;4844633;29;20063;-79
2023/09/28 07:57:05;;;;;;;10.70;6.93;;;;;;;16.62;98.69;101522.34;4844898;29;20452;-76
2023/09/28 07:59:32;;;;;;;8.02;7.13;;;;;;;16.67;97.85;101524.19;4840382;29;20067;-76
2023/09/28 08:01:58;;;;;;;9.20;6.93;;;;;;;16.74;97.87;101532.78;4836314;29;20041;-79
2023/09/28 08:04:23;;;;;;;8.85;6.30;;;;;;;16.80;97.87;101529.72;4848065;29;20468;-80
2023/09/28 08:06:49;;;;;;;7.72;6.55;;;;;;;16.84;97.59;101540.75;4812732;29;20037;-78
2023/09/28 08:09:14;;;;;;;6.90;6.20;;;;;;;16.89;97.43;101543.38;4859846;29;20635;-78
2023/09/28 08:11:41;;;;;;;11.13;6.40;;;;;;;17.02;97.78;101541.84;4819820;29;20112;-79
2023/09/28 08:14:09;;;;;;;7.68;6.20;;;;;;;17.11;96.82;101549.00;4840891;29;20157;-78
2023/09/28 08:16:36;;;;;;;9.63;6.85;;;;;;;17.14;96.25;101540.31;4853014;29;20032;-79
2023/09/28 08:19:02;;;;;;;8.00;6.05;;;;;;;17.25;96.45;101553.66;4839089;29;20041;-80
2023/09/28 08:21:28;;;;;;;9.20;5.88;;;;;;;17.37;95.51;101549.41;4816034;29;20038;-78
2023/09/28 08:23:55;;;;;;;9.65;6.47;;;;;;;17.47;94.62;101543.81;4847989;29;20034;-75
2023/09/28 08:26:21;;;;;;;8.40;6.28;;;;;;;17.55;93.66;101542.34;4833070;29;20031;-78
2023/09/28 08:28:46;;;;;;;8.20;5.78;;;;;;;17.66;94.38;101542.97;4836463;29;20422;-78
2023/09/28 08:31:12;;;;;;;8.27;6.13;;;;;;;17.80;94.01;101551.16;4836496;29;20488;-78
2023/09/28 08:33:38;;;;;;;9.77;5.82;;;;;;;17.91;92.68;101547.97;4833920;29;20657;-76
2023/09/28 08:36:08;;;;;;;7.57;5.40;;;;;;;18.08;91.95;101557.41;4837334;29;20041;-80
2023/09/28 08:38:33;;;;;;;7.65;5.82;;;;;;;18.21;91.52;101552.00;4829470;29;20421;-79
2023/09/28 08:41:00;;;;;;;8.50;6.00;;;;;;;18.34;91.48;101563.94;4836440;29;20105;-76
2023/09/28 08:43:33;;;;;;;6.88;5.03;;;;;;;18.50;90.99;101561.75;4809468;29;20084;-77
2023/09/28 08:46:03;;;;;;;7.78;5.40;;;;;;;18.63;90.18;101563.66;4822681;29;20517;-75
2023/09/28 08:48:29;;;;;;;6.72;5.60;;;;;;;18.74;90.23;101562.31;4822815;29;20045;-78
2023/09/28 08:51:04;;;;;;;7.50;5.43;;;;;;;18.83;89.55;101562.41;4834871;29;20113;-78
2023/09/28 08:53:31;;;;;;;8.68;5.68;;;;;;;18.91;89.87;101556.28;4849868;29;20643;-79
2023/09/28 08:55:57;;;;;;;6.90;5.45;;;;;;;19.00;89.42;101561.78;4833668;29;20026;-75
2023/09/28 08:58:24;;;;;;;6.18;4.75;;;;;;;19.14;87.54;101570.66;4842072;29;20044;-78
2023/09/28 09:00:49;;;;;;;8.27;5.03;;;;;;;19.23;88.05;101571.53;4853682;29;20034;-78
2023/09/28 09:03:20;;;;;;;5.70;4.80;;;;;;;19.36;86.11;101586.97;4826490;29;20040;-77
2023/09/28 09:05:46;;;;;;;7.28;5.35;;;;;;;19.45;88.88;101599.84;4838166;29;20535;-74
2023/09/28 09:08:14;;;;;;;7.28;4.93;;;;;;;19.46;89.10;101590.56;4840550;29;20037;-77
2023/09/28 09:10:40;;;;;;;7.10;4.85;;;;;;;19.61;88.44;101596.47;4849729;29;20037;-78
2023/09/28 09:13:14;;;;;;;5.85;4.45;;;;;;;19.76;88.88;101600.69;4845067;29;20044;-73
2023/09/28 09:15:42;;;;;;;6.25;4.30;;;;;;;19.77;87.06;101596.88;4842383;29;20030;-74
2023/09/28 09:18:08;;;;;;;5.93;3.92;;;;;;;19.83;87.45;101598.34;4852829;29;20144;-77
2023/09/28 09:20:33;;;;;;;6.70;3.95;;;;;;;19.91;85.20;101588.63;4844197;29;20480;-73
2023/09/28 09:23:12;;;;;;;7.15;3.50;;;;;;;19.98;87.44;101582.75;4825861;29;20563;-73
2023/09/28 09:25:47;;;;;;;5.28;3.90;;;;;;;20.05;85.82;101585.81;4834291;29;20499;-75
2023/09/28 09:28:30;;;;;;;6.03;4.00;;;;;;;20.09;83.96;101579.44;4820619;29;20555;-76
2023/09/28 09:30:56;;;;;;;6.80;3.10;;;;;;;20.11;84.88;101585.38;4824562;29;20124;-73
2023/09/28 09:33:22;;;;;;;8.20;3.65;;;;;;;20.17;83.47;101588.75;4843124;29;20381;-75
2023/09/28 09:35:50;;;;;;;5.00;3.63;;;;;;;20.23;84.95;101592.94;4838989;29;20044;-74
2023/09/28 09:38:36;;;;;;;5.30;3.65;;;;;;;20.26;85.84;101586.91;4828081;29;20069;-72
2023/09/28 09:41:04;;;;;;;6.35;3.55;;;;;;;20.34;84.28;101579.88;4844225;29;20042;-73
2023/09/28 09:43:32;;;;;;;7.10;3.35;;;;;;;20.38;85.14;101578.91;4831649;29;20124;-72
2023/09/28 09:45:57;;;;;;;4.72;3.40;;;;;;;20.46;84.46;101580.09;4826876;29;20069;-75
2023/09/28 09:48:24;;;;;;;5.57;3.70;;;;;;;20.50;81.28;101572.09;4851853;29;20050;-72
2023/09/28 09:50:52;;;;;;;5.18;3.67;;;;;;;20.58;78.47;101574.03;4853441;29;20069;-74
2023/09/28 09:53:21;;;;;;;4.78;3.30;;;;;;;20.58;80.08;101583.00;4824849;29;20038;-79
2023/09/28 09:55:50;;;;;;;7.10;3.97;;;;;;;20.67;81.30;101585.75;4839602;29;20045;-72
2023/09/28 09:58:17;;;;;;;7.38;3.38;;;;;;;20.69;82.85;101589.75;4824710;29;20041;-72
2023/09/28 10:00:44;;;;;;;7.50;3.85;;;;;;;20.71;79.87;101592.94;4852592;29;20070;-73
2023/09/28 10:03:10;;;;;;;7.32;3.50;;;;;;;20.76;79.73;101588.50;4837141;29;20105;-76
2023/09/28 10:05:37;;;;;;;6.50;3.55;;;;;;;20.82;78.89;101588.03;4826727;29;20034;-71
2023/09/28 10:08:07;;;;;;;9.13;3.53;;;;;;;20.84;78.71;101569.44;4842308;29;20046;-72
2023/09/28 10:10:34;;;;;;;6.03;3.50;;;;;;;20.89;77.94;101572.00;4836276;29;20046;-71
2023/09/28 10:13:00;;;;;;;6.60;3.25;;;;;;;21.01;77.84;101573.31;4836991;29;20037;-73
2023/09/28 10:15:26;;;;;;;5.93;2.80;;;;;;;21.02;78.49;101574.91;4842000;29;20907;-72
2023/09/28 10:17:53;;;;;;;5.35;3.50;;;;;;;21.10;79.07;101585.00;4863710;29;20644;-72
2023/09/28 10:20:20;;;;;;;5.32;3.10;;;;;;;21.17;80.45;101585.31;4827258;29;20046;-74
2023/09/28 10:22:47;;;;;;;6.55;4.03;;;;;;;21.23;78.27;101587.56;4825335;29;20037;-74
2023/09/28 10:25:15;;;;;;;6.43;3.80;;;;;;;21.31;79.01;101587.91;4832672;29;20045;-71
2023/09/28 10:27:45;;;;;;;5.97;3.50;;;;;;;21.32;78.73;101579.41;4832725;29;20052;-74
2023/09/28 10:30:20;;;;;;;5.82;3.05;;;;;;;21.38;78.35;101589.03;4840302;29;20068;-73
2023/09/28 10:32:50;;;;;;;3.85;3.00;;;;;;;21.43;78.78;101612.59;4843349;29;20529;-72
2023/09/28 10:35:26;;;;;;;4.78;2.72;;;;;;;21.49;79.75;101601.19;4846285;29;20848;-73
2023/09/28 10:38:19;;;;;;;5.38;3.13;;;;;;;21.55;79.87;101604.56;4837375;29;20045;-72
2023/09/28 10:40:48;;;;;;;9.38;3.15;;;;;;;21.58;77.47;101597.66;4847812;29;20519;-74
2023/09/28 10:43:31;;;;;;;4.63;2.90;;;;;;;21.64;78.96;101593.63;4831180;29;20939;-79
2023/09/28 10:46:01;;;;;;;6.20;2.88;;;;;;;21.73;75.93;101599.88;4823261;29;20025;-75
2023/09/28 10:48:31;;;;;;;4.55;2.83;;;;;;;21.81;77.48;101604.50;4839712;29;20050;-73
2023/09/28 10:50:57;;;;;;;5.88;2.90;;;;;;;21.86;78.75;101608.97;4849832;29;20156;-73
2023/09/28 10:53:23;;;;;;;5.72;2.92;;;;;;;21.92;77.60;101597.56;4818085;29;20567;-75
2023/09/28 10:55:49;;;;;;;4.63;3.00;;;;;;;21.98;77.68;101601.72;4834123;29;20093;-73
2023/09/28 10:58:16;;;;;;;4.75;3.00;;;;;;;22.04;77.03;101605.88;4842947;29;20041;-73
2023/09/28 11:00:42;;;;;;;5.32;2.85;;;;;;;22.16;77.88;101615.34;4852201;29;20038;-74
2023/09/28 11:03:07;;;;;;;5.78;2.65;;;;;;;22.18;77.25;101604.91;4860208;29;20085;-74
2023/09/28 11:05:34;;;;;;;6.72;3.03;;;;;;;22.19;78.88;101606.50;4843470;29;20040;-77
2023/09/28 11:08:03;;;;;;;6.57;2.78;;;;;;;22.13;78.68;101602.34;4827212;29;20128;-74
2023/09/28 11:10:29;;;;;;;6.28;3.10;;;;;;;22.06;78.97;101614.53;4836800;29;20164;-73
2023/09/28 11:12:55;;;;;;;5.15;3.17;;;;;;;22.00;77.99;101594.00;4855186;29;20037;-75
2023/09/28 11:15:22;;;;;;;7.78;3.17;;;;;;;22.02;79.49;101591.78;4841139;29;20135;-73
2023/09/28 11:17:50;;;;;;;5.20;3.10;;;;;;;22.05;78.07;101591.13;4840660;29;20045;-74
2023/09/28 11:20:16;;;;;;;4.82;2.95;;;;;;;22.01;74.57;101595.59;4841619;29;20053;-78
2023/09/28 11:22:41;;;;;;;5.13;3.05;;;;;;;22.14;76.61;101590.31;4833787;29;20160;-72
2023/09/28 11:25:08;;;;;;;4.43;3.03;;;;;;;22.19;74.80;101590.94;4846381;29;20086;-75